sensor_id;sensor_type;location;lat;lon;timestamp;P1;durP1;ratioP1;P2;durP2;ratioP2
19814;SDS011;10067;53.092;8.800;2023-02-28T00:00:04;14.37;;;8.07;;
19814;SDS011;10067;53.092;8.800;2023-02-28T00:02:35;13.43;;;7.43;;
19814;SDS011;10067;53.092;8.800;2023-02-28T00:05:01;15.17;;;7.60;;
19814;SDS011;10067;53.092;8.800;2023-02-28T00:07:28;11.83;;;7.40;;
19814;SDS011;10067;53.092;8.800;2023-02-28T00:09:56;15.53;;;7.67;;
19814;SDS011;10067;53.092;8.800;2023-02-28T00:12:22;11.93;;;7.10;;
19814;SDS011;10067;53.092;8.800;2023-02-28T00:14:49;13.63;;;7.80;;
19814;SDS011;10067;53.092;8.800;2023-02-28T00:17:15;11.07;;;6.77;;
19814;SDS011;10067;53.092;8.800;2023-02-28T00:19:42;16.13;;;6.80;;
19814;SDS011;10067;53.092;8.800;2023-02-28T00:22:09;14.70;;;6.70;;
19814;SDS011;10067;53.092;8.800;2023-02-28T00:24:35;13.23;;;7.30;;
19814;SDS011;10067;53.092;8.800;2023-02-28T00:27:03;11.27;;;6.70;;
19814;SDS011;10067;53.092;8.800;2023-02-28T00:29:29;13.40;;;7.13;;
19814;SDS011;10067;53.092;8.800;2023-02-28T00:31:56;14.23;;;7.07;;
19814;SDS011;10067;53.092;8.800;2023-02-28T00:34:22;12.00;;;7.40;;
19814;SDS011;10067;53.092;8.800;2023-02-28T00:36:49;8.63;;;6.60;;
19814;SDS011;10067;53.092;8.800;2023-02-28T00:39:15;12.47;;;6.43;;
19814;SDS011;10067;53.092;8.800;2023-02-28T00:41:42;13.70;;;6.50;;
19814;SDS011;10067;53.092;8.800;2023-02-28T00:44:09;10.23;;;5.90;;
19814;SDS011;10067;53.092;8.800;2023-02-28T00:46:36;10.67;;;5.50;;
19814;SDS011;10067;53.092;8.800;2023-02-28T00:49:02;9.93;;;5.13;;
19814;SDS011;10067;53.092;8.800;2023-02-28T00:51:28;10.57;;;5.53;;
19814;SDS011;10067;53.092;8.800;2023-02-28T00:53:55;12.43;;;5.77;;
19814;SDS011;10067;53.092;8.800;2023-02-28T00:56:21;12.70;;;5.73;;
19814;SDS011;10067;53.092;8.800;2023-02-28T00:58:48;10.90;;;5.77;;
19814;SDS011;10067;53.092;8.800;2023-02-28T01:01:15;10.63;;;5.20;;
19814;SDS011;10067;53.092;8.800;2023-02-28T01:03:42;13.10;;;6.43;;
19814;SDS011;10067;53.092;8.800;2023-02-28T01:06:08;13.17;;;5.60;;
19814;SDS011;10067;53.092;8.800;2023-02-28T01:08:34;13.13;;;6.17;;
19814;SDS011;10067;53.092;8.800;2023-02-28T01:11:06;13.00;;;6.27;;
19814;SDS011;10067;53.092;8.800;2023-02-28T01:13:33;11.30;;;5.73;;
19814;SDS011;10067;53.092;8.800;2023-02-28T01:15:59;11.33;;;5.53;;
19814;SDS011;10067;53.092;8.800;2023-02-28T01:18:27;11.90;;;5.47;;
19814;SDS011;10067;53.092;8.800;2023-02-28T01:20:54;9.50;;;5.30;;
19814;SDS011;10067;53.092;8.800;2023-02-28T01:23:21;10.03;;;4.67;;
19814;SDS011;10067;53.092;8.800;2023-02-28T01:25:48;7.73;;;4.43;;
19814;SDS011;10067;53.092;8.800;2023-02-28T01:28:14;11.13;;;4.97;;
19814;SDS011;10067;53.092;8.800;2023-02-28T01:30:41;9.43;;;5.27;;
19814;SDS011;10067;53.092;8.800;2023-02-28T01:33:07;10.60;;;5.10;;
19814;SDS011;10067;53.092;8.800;2023-02-28T01:35:35;10.27;;;5.00;;
19814;SDS011;10067;53.092;8.800;2023-02-28T01:38:02;8.90;;;4.93;;
19814;SDS011;10067;53.092;8.800;2023-02-28T01:40:29;13.87;;;5.40;;
19814;SDS011;10067;53.092;8.800;2023-02-28T01:42:55;12.60;;;4.90;;
19814;SDS011;10067;53.092;8.800;2023-02-28T01:45:22;9.67;;;4.87;;
19814;SDS011;10067;53.092;8.800;2023-02-28T01:47:51;7.13;;;4.37;;
19814;SDS011;10067;53.092;8.800;2023-02-28T01:50:19;10.63;;;4.90;;
19814;SDS011;10067;53.092;8.800;2023-02-28T01:52:47;8.00;;;4.57;;
19814;SDS011;10067;53.092;8.800;2023-02-28T01:55:14;8.40;;;4.27;;
19814;SDS011;10067;53.092;8.800;2023-02-28T01:57:41;7.70;;;5.03;;
19814;SDS011;10067;53.092;8.800;2023-02-28T02:00:09;9.33;;;5.00;;
19814;SDS011;10067;53.092;8.800;2023-02-28T02:02:38;9.80;;;5.00;;
19814;SDS011;10067;53.092;8.800;2023-02-28T02:05:06;9.63;;;5.00;;
19814;SDS011;10067;53.092;8.800;2023-02-28T02:07:35;8.17;;;4.90;;
19814;SDS011;10067;53.092;8.800;2023-02-28T02:10:04;11.50;;;5.00;;
19814;SDS011;10067;53.092;8.800;2023-02-28T02:12:47;10.80;;;5.80;;
19814;SDS011;10067;53.092;8.800;2023-02-28T02:15:16;9.40;;;5.27;;
19814;SDS011;10067;53.092;8.800;2023-02-28T02:17:44;10.33;;;5.40;;
19814;SDS011;10067;53.092;8.800;2023-02-28T02:23:14;13.70;;;5.47;;
19814;SDS011;10067;53.092;8.800;2023-02-28T02:25:46;9.67;;;4.93;;
19814;SDS011;10067;53.092;8.800;2023-02-28T02:28:29;11.23;;;5.43;;
19814;SDS011;10067;53.092;8.800;2023-02-28T02:31:04;10.67;;;4.50;;
19814;SDS011;10067;53.092;8.800;2023-02-28T02:34:01;8.30;;;4.83;;
19814;SDS011;10067;53.092;8.800;2023-02-28T02:36:30;8.17;;;5.00;;
19814;SDS011;10067;53.092;8.800;2023-02-28T02:39:01;9.40;;;4.37;;
19814;SDS011;10067;53.092;8.800;2023-02-28T02:41:33;9.17;;;5.00;;
19814;SDS011;10067;53.092;8.800;2023-02-28T02:44:01;10.20;;;5.43;;
19814;SDS011;10067;53.092;8.800;2023-02-28T02:46:29;8.17;;;4.87;;
19814;SDS011;10067;53.092;8.800;2023-02-28T02:48:57;14.40;;;6.00;;
19814;SDS011;10067;53.092;8.800;2023-02-28T02:51:26;8.53;;;5.40;;
19814;SDS011;10067;53.092;8.800;2023-02-28T02:53:54;11.17;;;5.40;;
19814;SDS011;10067;53.092;8.800;2023-02-28T02:56:23;9.23;;;5.87;;
19814;SDS011;10067;53.092;8.800;2023-02-28T02:58:49;8.23;;;5.50;;
19814;SDS011;10067;53.092;8.800;2023-02-28T03:01:18;10.70;;;5.50;;
19814;SDS011;10067;53.092;8.800;2023-02-28T03:03:53;14.00;;;5.97;;
19814;SDS011;10067;53.092;8.800;2023-02-28T03:06:20;10.57;;;5.50;;
19814;SDS011;10067;53.092;8.800;2023-02-28T03:08:48;10.10;;;5.63;;
19814;SDS011;10067;53.092;8.800;2023-02-28T03:11:14;9.33;;;5.73;;
19814;SDS011;10067;53.092;8.800;2023-02-28T03:13:44;12.07;;;5.03;;
19814;SDS011;10067;53.092;8.800;2023-02-28T03:16:19;14.53;;;6.20;;
19814;SDS011;10067;53.092;8.800;2023-02-28T03:18:50;10.97;;;5.73;;
19814;SDS011;10067;53.092;8.800;2023-02-28T03:21:21;12.80;;;6.10;;
19814;SDS011;10067;53.092;8.800;2023-02-28T03:23:53;8.57;;;5.67;;
19814;SDS011;10067;53.092;8.800;2023-02-28T03:26:22;10.30;;;5.80;;
19814;SDS011;10067;53.092;8.800;2023-02-28T03:28:51;9.57;;;6.10;;
19814;SDS011;10067;53.092;8.800;2023-02-28T03:31:20;14.37;;;5.83;;
19814;SDS011;10067;53.092;8.800;2023-02-28T03:33:49;13.00;;;6.40;;
19814;SDS011;10067;53.092;8.800;2023-02-28T03:36:20;11.60;;;6.50;;
19814;SDS011;10067;53.092;8.800;2023-02-28T03:38:48;9.50;;;6.40;;
19814;SDS011;10067;53.092;8.800;2023-02-28T03:41:17;10.23;;;6.13;;
19814;SDS011;10067;53.092;8.800;2023-02-28T03:43:46;13.33;;;6.23;;
19814;SDS011;10067;53.092;8.800;2023-02-28T03:46:15;12.63;;;6.40;;
19814;SDS011;10067;53.092;8.800;2023-02-28T03:48:47;7.80;;;5.47;;
19814;SDS011;10067;53.092;8.800;2023-02-28T03:51:15;8.90;;;5.83;;
19814;SDS011;10067;53.092;8.800;2023-02-28T03:53:44;12.00;;;6.80;;
19814;SDS011;10067;53.092;8.800;2023-02-28T03:56:12;10.57;;;6.00;;
19814;SDS011;10067;53.092;8.800;2023-02-28T03:58:43;12.73;;;6.00;;
19814;SDS011;10067;53.092;8.800;2023-02-28T04:01:14;12.63;;;6.07;;
19814;SDS011;10067;53.092;8.800;2023-02-28T04:03:41;9.40;;;6.00;;
19814;SDS011;10067;53.092;8.800;2023-02-28T04:06:08;10.23;;;5.80;;
19814;SDS011;10067;53.092;8.800;2023-02-28T04:08:39;11.23;;;5.97;;
19814;SDS011;10067;53.092;8.800;2023-02-28T04:11:06;11.90;;;6.30;;
19814;SDS011;10067;53.092;8.800;2023-02-28T04:13:34;9.40;;;5.97;;
19814;SDS011;10067;53.092;8.800;2023-02-28T04:16:02;8.57;;;5.53;;
19814;SDS011;10067;53.092;8.800;2023-02-28T04:18:36;12.23;;;6.10;;
19814;SDS011;10067;53.092;8.800;2023-02-28T04:21:03;12.67;;;5.70;;
19814;SDS011;10067;53.092;8.800;2023-02-28T04:23:30;10.13;;;5.90;;
19814;SDS011;10067;53.092;8.800;2023-02-28T04:25:56;12.97;;;6.07;;
19814;SDS011;10067;53.092;8.800;2023-02-28T04:28:22;10.83;;;5.63;;
19814;SDS011;10067;53.092;8.800;2023-02-28T04:30:53;15.40;;;6.27;;
19814;SDS011;10067;53.092;8.800;2023-02-28T04:33:21;12.07;;;6.20;;
19814;SDS011;10067;53.092;8.800;2023-02-28T04:35:47;9.40;;;5.80;;
19814;SDS011;10067;53.092;8.800;2023-02-28T04:38:14;8.50;;;5.47;;
19814;SDS011;10067;53.092;8.800;2023-02-28T04:40:40;11.23;;;6.27;;
19814;SDS011;10067;53.092;8.800;2023-02-28T04:43:07;9.57;;;5.87;;
19814;SDS011;10067;53.092;8.800;2023-02-28T04:45:34;13.93;;;6.00;;
19814;SDS011;10067;53.092;8.800;2023-02-28T04:48:01;10.87;;;5.43;;
19814;SDS011;10067;53.092;8.800;2023-02-28T04:50:28;13.07;;;6.37;;
19814;SDS011;10067;53.092;8.800;2023-02-28T04:52:55;11.80;;;5.63;;
19814;SDS011;10067;53.092;8.800;2023-02-28T04:55:22;10.67;;;5.33;;
19814;SDS011;10067;53.092;8.800;2023-02-28T04:57:48;10.40;;;5.67;;
19814;SDS011;10067;53.092;8.800;2023-02-28T05:00:15;7.30;;;5.03;;
19814;SDS011;10067;53.092;8.800;2023-02-28T05:02:41;11.50;;;5.27;;
19814;SDS011;10067;53.092;8.800;2023-02-28T05:05:08;12.13;;;5.77;;
19814;SDS011;10067;53.092;8.800;2023-02-28T05:07:36;8.97;;;5.00;;
19814;SDS011;10067;53.092;8.800;2023-02-28T05:10:02;10.57;;;5.10;;
19814;SDS011;10067;53.092;8.800;2023-02-28T05:12:28;9.50;;;4.60;;
19814;SDS011;10067;53.092;8.800;2023-02-28T05:14:55;9.77;;;5.33;;
19814;SDS011;10067;53.092;8.800;2023-02-28T05:17:21;7.20;;;4.70;;
19814;SDS011;10067;53.092;8.800;2023-02-28T05:19:48;11.80;;;5.07;;
19814;SDS011;10067;53.092;8.800;2023-02-28T05:22:14;8.47;;;5.00;;
19814;SDS011;10067;53.092;8.800;2023-02-28T05:24:43;7.80;;;4.93;;
19814;SDS011;10067;53.092;8.800;2023-02-28T05:27:09;10.10;;;5.47;;
19814;SDS011;10067;53.092;8.800;2023-02-28T05:29:36;7.90;;;5.00;;
19814;SDS011;10067;53.092;8.800;2023-02-28T05:32:07;10.93;;;5.00;;
19814;SDS011;10067;53.092;8.800;2023-02-28T05:34:33;10.43;;;5.30;;
19814;SDS011;10067;53.092;8.800;2023-02-28T05:37:00;10.53;;;5.03;;
19814;SDS011;10067;53.092;8.800;2023-02-28T05:39:26;12.20;;;5.60;;
19814;SDS011;10067;53.092;8.800;2023-02-28T05:41:54;12.77;;;5.87;;
19814;SDS011;10067;53.092;8.800;2023-02-28T05:44:20;7.17;;;4.70;;
19814;SDS011;10067;53.092;8.800;2023-02-28T05:46:47;12.37;;;5.50;;
19814;SDS011;10067;53.092;8.800;2023-02-28T05:49:13;13.30;;;5.70;;
19814;SDS011;10067;53.092;8.800;2023-02-28T05:51:39;11.90;;;6.00;;
19814;SDS011;10067;53.092;8.800;2023-02-28T05:54:06;8.10;;;5.57;;
19814;SDS011;10067;53.092;8.800;2023-02-28T05:56:33;9.50;;;5.40;;
19814;SDS011;10067;53.092;8.800;2023-02-28T05:59:01;12.03;;;5.60;;
19814;SDS011;10067;53.092;8.800;2023-02-28T06:01:32;11.60;;;5.83;;
19814;SDS011;10067;53.092;8.800;2023-02-28T06:03:58;9.33;;;5.67;;
19814;SDS011;10067;53.092;8.800;2023-02-28T06:06:25;12.10;;;6.27;;
19814;SDS011;10067;53.092;8.800;2023-02-28T06:08:51;11.30;;;6.47;;
19814;SDS011;10067;53.092;8.800;2023-02-28T06:11:17;12.90;;;5.93;;
19814;SDS011;10067;53.092;8.800;2023-02-28T06:13:45;12.83;;;5.57;;
19814;SDS011;10067;53.092;8.800;2023-02-28T06:16:13;10.13;;;6.10;;
19814;SDS011;10067;53.092;8.800;2023-02-28T06:18:39;10.67;;;6.30;;
19814;SDS011;10067;53.092;8.800;2023-02-28T06:21:06;12.23;;;6.20;;
19814;SDS011;10067;53.092;8.800;2023-02-28T06:23:33;9.03;;;5.83;;
19814;SDS011;10067;53.092;8.800;2023-02-28T06:26:00;12.67;;;6.80;;
19814;SDS011;10067;53.092;8.800;2023-02-28T06:28:27;13.37;;;6.83;;
19814;SDS011;10067;53.092;8.800;2023-02-28T06:30:53;10.03;;;6.20;;
19814;SDS011;10067;53.092;8.800;2023-02-28T06:33:21;13.47;;;6.50;;
19814;SDS011;10067;53.092;8.800;2023-02-28T06:35:47;13.73;;;6.00;;
19814;SDS011;10067;53.092;8.800;2023-02-28T06:38:15;12.30;;;6.70;;
19814;SDS011;10067;53.092;8.800;2023-02-28T06:40:43;10.03;;;6.70;;
19814;SDS011;10067;53.092;8.800;2023-02-28T06:43:09;11.83;;;5.77;;
19814;SDS011;10067;53.092;8.800;2023-02-28T06:45:40;10.90;;;6.97;;
19814;SDS011;10067;53.092;8.800;2023-02-28T06:48:07;11.97;;;6.53;;
19814;SDS011;10067;53.092;8.800;2023-02-28T06:50:35;12.93;;;7.20;;
19814;SDS011;10067;53.092;8.800;2023-02-28T06:53:01;12.17;;;6.47;;
19814;SDS011;10067;53.092;8.800;2023-02-28T06:55:27;13.20;;;6.87;;
19814;SDS011;10067;53.092;8.800;2023-02-28T06:57:54;12.17;;;6.33;;
19814;SDS011;10067;53.092;8.800;2023-02-28T07:00:21;12.33;;;6.20;;
19814;SDS011;10067;53.092;8.800;2023-02-28T07:02:47;12.53;;;6.27;;
19814;SDS011;10067;53.092;8.800;2023-02-28T07:05:13;15.47;;;6.43;;
19814;SDS011;10067;53.092;8.800;2023-02-28T07:07:41;11.80;;;6.50;;
19814;SDS011;10067;53.092;8.800;2023-02-28T07:10:10;12.53;;;6.70;;
19814;SDS011;10067;53.092;8.800;2023-02-28T07:12:37;9.43;;;6.50;;
19814;SDS011;10067;53.092;8.800;2023-02-28T07:15:04;12.60;;;6.47;;
19814;SDS011;10067;53.092;8.800;2023-02-28T07:17:31;14.27;;;6.97;;
19814;SDS011;10067;53.092;8.800;2023-02-28T07:19:57;13.90;;;7.13;;
19814;SDS011;10067;53.092;8.800;2023-02-28T07:22:23;11.87;;;7.37;;
19814;SDS011;10067;53.092;8.800;2023-02-28T07:24:52;22.70;;;11.33;;
19814;SDS011;10067;53.092;8.800;2023-02-28T07:27:18;23.80;;;13.83;;
19814;SDS011;10067;53.092;8.800;2023-02-28T07:29:50;23.53;;;16.27;;
19814;SDS011;10067;53.092;8.800;2023-02-28T07:32:17;10.30;;;6.60;;
19814;SDS011;10067;53.092;8.800;2023-02-28T07:34:44;17.80;;;9.10;;
19814;SDS011;10067;53.092;8.800;2023-02-28T07:37:10;24.37;;;13.80;;
19814;SDS011;10067;53.092;8.800;2023-02-28T07:39:36;14.00;;;9.50;;
19814;SDS011;10067;53.092;8.800;2023-02-28T07:42:05;10.20;;;6.50;;
19814;SDS011;10067;53.092;8.800;2023-02-28T07:44:34;9.33;;;6.17;;
19814;SDS011;10067;53.092;8.800;2023-02-28T07:47:05;11.17;;;5.93;;
19814;SDS011;10067;53.092;8.800;2023-02-28T07:49:31;11.67;;;6.17;;
19814;SDS011;10067;53.092;8.800;2023-02-28T07:51:58;9.47;;;6.17;;
19814;SDS011;10067;53.092;8.800;2023-02-28T07:54:24;9.47;;;5.90;;
19814;SDS011;10067;53.092;8.800;2023-02-28T07:56:50;11.03;;;6.87;;
19814;SDS011;10067;53.092;8.800;2023-02-28T07:59:18;12.93;;;6.90;;
19814;SDS011;10067;53.092;8.800;2023-02-28T08:01:44;7.90;;;5.57;;
19814;SDS011;10067;53.092;8.800;2023-02-28T08:04:11;11.83;;;7.03;;
19814;SDS011;10067;53.092;8.800;2023-02-28T08:06:37;11.60;;;7.03;;
19814;SDS011;10067;53.092;8.800;2023-02-28T08:09:04;11.73;;;6.97;;
19814;SDS011;10067;53.092;8.800;2023-02-28T08:11:30;12.87;;;6.70;;
19814;SDS011;10067;53.092;8.800;2023-02-28T08:13:57;11.90;;;5.90;;
19814;SDS011;10067;53.092;8.800;2023-02-28T08:16:24;12.27;;;5.27;;
19814;SDS011;10067;53.092;8.800;2023-02-28T08:18:51;9.93;;;5.87;;
19814;SDS011;10067;53.092;8.800;2023-02-28T08:21:18;10.27;;;5.13;;
19814;SDS011;10067;53.092;8.800;2023-02-28T08:23:46;14.80;;;5.77;;
19814;SDS011;10067;53.092;8.800;2023-02-28T08:26:12;10.70;;;5.10;;
19814;SDS011;10067;53.092;8.800;2023-02-28T08:28:39;12.53;;;5.63;;
19814;SDS011;10067;53.092;8.800;2023-02-28T08:31:08;15.37;;;6.30;;
19814;SDS011;10067;53.092;8.800;2023-02-28T08:33:37;7.43;;;4.80;;
19814;SDS011;10067;53.092;8.800;2023-02-28T08:36:04;9.03;;;5.00;;
19814;SDS011;10067;53.092;8.800;2023-02-28T08:38:30;10.40;;;5.27;;
19814;SDS011;10067;53.092;8.800;2023-02-28T08:40:57;6.93;;;4.63;;
19814;SDS011;10067;53.092;8.800;2023-02-28T08:43:24;6.03;;;3.77;;
19814;SDS011;10067;53.092;8.800;2023-02-28T08:45:51;9.43;;;3.90;;
19814;SDS011;10067;53.092;8.800;2023-02-28T08:48:17;7.07;;;3.67;;
19814;SDS011;10067;53.092;8.800;2023-02-28T08:50:53;12.00;;;6.17;;
19814;SDS011;10067;53.092;8.800;2023-02-28T08:53:20;8.40;;;3.43;;
19814;SDS011;10067;53.092;8.800;2023-02-28T08:55:46;5.80;;;3.27;;
19814;SDS011;10067;53.092;8.800;2023-02-28T08:58:13;8.50;;;3.17;;
19814;SDS011;10067;53.092;8.800;2023-02-28T09:00:40;3.97;;;2.33;;
19814;SDS011;10067;53.092;8.800;2023-02-28T09:03:07;6.83;;;3.23;;
19814;SDS011;10067;53.092;8.800;2023-02-28T09:05:33;4.40;;;2.80;;
19814;SDS011;10067;53.092;8.800;2023-02-28T09:08:01;7.20;;;3.50;;
19814;SDS011;10067;53.092;8.800;2023-02-28T09:10:28;8.03;;;3.30;;
19814;SDS011;10067;53.092;8.800;2023-02-28T09:12:54;10.37;;;5.00;;
19814;SDS011;10067;53.092;8.800;2023-02-28T09:15:21;5.00;;;2.90;;
19814;SDS011;10067;53.092;8.800;2023-02-28T09:17:47;6.00;;;3.37;;
19814;SDS011;10067;53.092;8.800;2023-02-28T09:20:14;5.47;;;3.10;;
19814;SDS011;10067;53.092;8.800;2023-02-28T09:22:40;3.50;;;2.33;;
19814;SDS011;10067;53.092;8.800;2023-02-28T09:25:08;2.90;;;1.83;;
19814;SDS011;10067;53.092;8.800;2023-02-28T09:27:34;4.73;;;2.07;;
19814;SDS011;10067;53.092;8.800;2023-02-28T09:30:02;2.27;;;1.70;;
19814;SDS011;10067;53.092;8.800;2023-02-28T09:32:28;2.60;;;1.43;;
19814;SDS011;10067;53.092;8.800;2023-02-28T09:34:55;3.83;;;1.60;;
19814;SDS011;10067;53.092;8.800;2023-02-28T09:37:21;3.23;;;1.93;;
19814;SDS011;10067;53.092;8.800;2023-02-28T09:39:48;2.67;;;1.10;;
19814;SDS011;10067;53.092;8.800;2023-02-28T09:42:20;1.90;;;1.17;;
19814;SDS011;10067;53.092;8.800;2023-02-28T09:44:48;3.20;;;1.73;;
19814;SDS011;10067;53.092;8.800;2023-02-28T09:47:17;6.65;;;1.70;;
19814;SDS011;10067;53.092;8.800;2023-02-28T09:49:46;2.80;;;1.58;;
19814;SDS011;10067;53.092;8.800;2023-02-28T09:52:14;6.35;;;1.67;;
19814;SDS011;10067;53.092;8.800;2023-02-28T09:54:41;4.20;;;1.88;;
19814;SDS011;10067;53.092;8.800;2023-02-28T09:57:09;2.78;;;1.70;;
19814;SDS011;10067;53.092;8.800;2023-02-28T09:59:47;3.10;;;1.65;;
19814;SDS011;10067;53.092;8.800;2023-02-28T10:02:19;3.03;;;1.63;;
19814;SDS011;10067;53.092;8.800;2023-02-28T10:04:49;4.13;;;1.58;;
19814;SDS011;10067;53.092;8.800;2023-02-28T10:07:21;4.00;;;1.83;;
19814;SDS011;10067;53.092;8.800;2023-02-28T10:09:53;3.97;;;1.70;;
19814;SDS011;10067;53.092;8.800;2023-02-28T10:12:21;6.97;;;1.98;;
19814;SDS011;10067;53.092;8.800;2023-02-28T10:14:49;5.32;;;2.75;;
19814;SDS011;10067;53.092;8.800;2023-02-28T10:17:17;2.28;;;1.85;;
19814;SDS011;10067;53.092;8.800;2023-02-28T10:19:47;3.20;;;1.80;;
19814;SDS011;10067;53.092;8.800;2023-02-28T10:22:19;4.03;;;1.95;;
19814;SDS011;10067;53.092;8.800;2023-02-28T10:24:59;4.55;;;2.25;;
19814;SDS011;10067;53.092;8.800;2023-02-28T10:27:29;2.55;;;1.55;;
19814;SDS011;10067;53.092;8.800;2023-02-28T10:29:58;2.85;;;1.60;;
19814;SDS011;10067;53.092;8.800;2023-02-28T10:32:26;2.78;;;1.65;;
19814;SDS011;10067;53.092;8.800;2023-02-28T10:34:55;4.45;;;1.40;;
19814;SDS011;10067;53.092;8.800;2023-02-28T10:37:23;3.55;;;1.85;;
19814;SDS011;10067;53.092;8.800;2023-02-28T10:39:49;2.67;;;1.83;;
19814;SDS011;10067;53.092;8.800;2023-02-28T10:42:19;3.15;;;1.75;;
19814;SDS011;10067;53.092;8.800;2023-02-28T10:44:46;4.53;;;1.75;;
19814;SDS011;10067;53.092;8.800;2023-02-28T10:47:15;3.63;;;2.25;;
19814;SDS011;10067;53.092;8.800;2023-02-28T10:49:46;2.95;;;1.80;;
19814;SDS011;10067;53.092;8.800;2023-02-28T10:52:13;2.80;;;2.13;;
19814;SDS011;10067;53.092;8.800;2023-02-28T10:54:41;2.72;;;1.75;;
19814;SDS011;10067;53.092;8.800;2023-02-28T10:57:17;3.53;;;1.85;;
19814;SDS011;10067;53.092;8.800;2023-02-28T10:59:44;1.88;;;1.73;;
19814;SDS011;10067;53.092;8.800;2023-02-28T11:02:34;3.78;;;1.85;;
19814;SDS011;10067;53.092;8.800;2023-02-28T11:07:52;3.53;;;1.90;;
19814;SDS011;10067;53.092;8.800;2023-02-28T11:10:23;4.32;;;1.90;;
19814;SDS011;10067;53.092;8.800;2023-02-28T11:12:53;4.25;;;3.35;;
19814;SDS011;10067;53.092;8.800;2023-02-28T11:15:21;3.03;;;1.65;;
19814;SDS011;10067;53.092;8.800;2023-02-28T11:17:54;6.18;;;2.30;;
19814;SDS011;10067;53.092;8.800;2023-02-28T11:20:22;2.85;;;1.60;;
19814;SDS011;10067;53.092;8.800;2023-02-28T11:22:49;3.13;;;1.50;;
19814;SDS011;10067;53.092;8.800;2023-02-28T11:25:19;2.33;;;1.60;;
19814;SDS011;10067;53.092;8.800;2023-02-28T11:27:47;3.83;;;2.00;;
19814;SDS011;10067;53.092;8.800;2023-02-28T11:30:28;3.50;;;2.15;;
19814;SDS011;10067;53.092;8.800;2023-02-28T11:32:56;2.55;;;1.48;;
19814;SDS011;10067;53.092;8.800;2023-02-28T11:35:23;3.53;;;1.90;;
19814;SDS011;10067;53.092;8.800;2023-02-28T11:37:50;3.65;;;1.90;;
19814;SDS011;10067;53.092;8.800;2023-02-28T11:40:18;4.93;;;1.65;;
19814;SDS011;10067;53.092;8.800;2023-02-28T11:42:48;3.67;;;2.00;;
19814;SDS011;10067;53.092;8.800;2023-02-28T11:45:25;2.83;;;2.13;;
19814;SDS011;10067;53.092;8.800;2023-02-28T11:47:56;3.85;;;2.13;;
19814;SDS011;10067;53.092;8.800;2023-02-28T11:50:31;3.10;;;1.90;;
19814;SDS011;10067;53.092;8.800;2023-02-28T11:53:05;4.20;;;2.22;;
19814;SDS011;10067;53.092;8.800;2023-02-28T11:55:36;3.35;;;2.00;;
19814;SDS011;10067;53.092;8.800;2023-02-28T11:58:14;3.40;;;2.30;;
19814;SDS011;10067;53.092;8.800;2023-02-28T12:00:52;3.38;;;1.77;;
19814;SDS011;10067;53.092;8.800;2023-02-28T12:03:26;4.18;;;1.75;;
19814;SDS011;10067;53.092;8.800;2023-02-28T12:05:55;5.75;;;2.15;;
19814;SDS011;10067;53.092;8.800;2023-02-28T12:08:26;3.33;;;1.67;;
19814;SDS011;10067;53.092;8.800;2023-02-28T12:11:06;3.10;;;1.80;;
19814;SDS011;10067;53.092;8.800;2023-02-28T12:13:38;2.65;;;1.92;;
19814;SDS011;10067;53.092;8.800;2023-02-28T12:16:23;4.68;;;1.92;;
19814;SDS011;10067;53.092;8.800;2023-02-28T12:18:58;2.38;;;1.75;;
19814;SDS011;10067;53.092;8.800;2023-02-28T12:21:30;3.08;;;1.92;;
19814;SDS011;10067;53.092;8.800;2023-02-28T12:24:03;3.78;;;1.85;;
19814;SDS011;10067;53.092;8.800;2023-02-28T12:26:34;3.05;;;1.58;;
19814;SDS011;10067;53.092;8.800;2023-02-28T12:29:04;4.90;;;2.45;;
19814;SDS011;10067;53.092;8.800;2023-02-28T12:31:36;2.05;;;1.63;;
19814;SDS011;10067;53.092;8.800;2023-02-28T12:34:04;2.22;;;1.60;;
19814;SDS011;10067;53.092;8.800;2023-02-28T12:36:32;3.85;;;2.03;;
19814;SDS011;10067;53.092;8.800;2023-02-28T12:39:00;2.35;;;1.60;;
19814;SDS011;10067;53.092;8.800;2023-02-28T12:41:29;2.83;;;1.75;;
19814;SDS011;10067;53.092;8.800;2023-02-28T12:43:58;3.28;;;1.67;;
19814;SDS011;10067;53.092;8.800;2023-02-28T12:46:27;3.28;;;1.80;;
19814;SDS011;10067;53.092;8.800;2023-02-28T12:48:56;3.88;;;1.80;;
19814;SDS011;10067;53.092;8.800;2023-02-28T12:51:24;3.22;;;1.77;;
19814;SDS011;10067;53.092;8.800;2023-02-28T12:53:54;3.08;;;2.00;;
19814;SDS011;10067;53.092;8.800;2023-02-28T12:56:24;3.85;;;2.75;;
19814;SDS011;10067;53.092;8.800;2023-02-28T12:58:56;4.30;;;1.88;;
19814;SDS011;10067;53.092;8.800;2023-02-28T13:01:31;4.63;;;1.58;;
19814;SDS011;10067;53.092;8.800;2023-02-28T13:04:07;2.78;;;1.50;;
19814;SDS011;10067;53.092;8.800;2023-02-28T13:06:43;3.63;;;1.77;;
19814;SDS011;10067;53.092;8.800;2023-02-28T13:09:12;2.53;;;1.50;;
19814;SDS011;10067;53.092;8.800;2023-02-28T13:11:41;1.70;;;1.23;;
19814;SDS011;10067;53.092;8.800;2023-02-28T13:14:16;3.92;;;1.60;;
19814;SDS011;10067;53.092;8.800;2023-02-28T13:16:48;2.42;;;1.83;;
19814;SDS011;10067;53.092;8.800;2023-02-28T13:19:17;2.88;;;1.40;;
19814;SDS011;10067;53.092;8.800;2023-02-28T13:21:45;3.53;;;1.80;;
19814;SDS011;10067;53.092;8.800;2023-02-28T13:24:35;1.65;;;1.40;;
19814;SDS011;10067;53.092;8.800;2023-02-28T13:29:59;2.42;;;1.90;;
19814;SDS011;10067;53.092;8.800;2023-02-28T13:35:14;1.90;;;1.40;;
19814;SDS011;10067;53.092;8.800;2023-02-28T13:37:45;2.78;;;1.77;;
19814;SDS011;10067;53.092;8.800;2023-02-28T13:40:26;3.35;;;2.28;;
19814;SDS011;10067;53.092;8.800;2023-02-28T13:42:53;3.63;;;2.15;;
19814;SDS011;10067;53.092;8.800;2023-02-28T13:45:20;3.47;;;2.30;;
19814;SDS011;10067;53.092;8.800;2023-02-28T13:47:51;7.15;;;4.93;;
19814;SDS011;10067;53.092;8.800;2023-02-28T13:50:22;3.33;;;2.45;;
19814;SDS011;10067;53.092;8.800;2023-02-28T13:52:54;3.50;;;1.80;;
19814;SDS011;10067;53.092;8.800;2023-02-28T13:55:24;2.53;;;1.42;;
19814;SDS011;10067;53.092;8.800;2023-02-28T14:00:41;3.33;;;1.90;;
19814;SDS011;10067;53.092;8.800;2023-02-28T14:03:33;3.53;;;2.22;;
19814;SDS011;10067;53.092;8.800;2023-02-28T14:06:09;2.38;;;1.65;;
19814;SDS011;10067;53.092;8.800;2023-02-28T14:08:45;2.47;;;1.55;;
19814;SDS011;10067;53.092;8.800;2023-02-28T14:11:23;2.08;;;1.45;;
19814;SDS011;10067;53.092;8.800;2023-02-28T14:13:51;2.55;;;1.50;;
19814;SDS011;10067;53.092;8.800;2023-02-28T14:16:20;3.22;;;1.65;;
19814;SDS011;10067;53.092;8.800;2023-02-28T14:18:56;2.70;;;1.60;;
19814;SDS011;10067;53.092;8.800;2023-02-28T14:21:25;5.10;;;1.90;;
19814;SDS011;10067;53.092;8.800;2023-02-28T14:24:09;3.38;;;1.70;;
19814;SDS011;10067;53.092;8.800;2023-02-28T14:26:56;2.78;;;2.20;;
19814;SDS011;10067;53.092;8.800;2023-02-28T14:29:30;2.92;;;1.60;;
19814;SDS011;10067;53.092;8.800;2023-02-28T14:32:01;2.35;;;1.67;;
19814;SDS011;10067;53.092;8.800;2023-02-28T14:34:35;3.00;;;1.55;;
19814;SDS011;10067;53.092;8.800;2023-02-28T14:37:03;3.03;;;1.70;;
19814;SDS011;10067;53.092;8.800;2023-02-28T14:39:34;4.35;;;1.60;;
19814;SDS011;10067;53.092;8.800;2023-02-28T14:42:02;2.70;;;2.03;;
19814;SDS011;10067;53.092;8.800;2023-02-28T14:44:30;3.08;;;1.67;;
19814;SDS011;10067;53.092;8.800;2023-02-28T14:46:57;2.08;;;1.40;;
19814;SDS011;10067;53.092;8.800;2023-02-28T14:49:25;2.85;;;1.55;;
19814;SDS011;10067;53.092;8.800;2023-02-28T14:52:01;2.83;;;2.05;;
19814;SDS011;10067;53.092;8.800;2023-02-28T14:54:28;3.13;;;1.77;;
19814;SDS011;10067;53.092;8.800;2023-02-28T14:56:56;4.70;;;2.15;;
19814;SDS011;10067;53.092;8.800;2023-02-28T14:59:23;3.65;;;2.65;;
19814;SDS011;10067;53.092;8.800;2023-02-28T15:01:50;3.53;;;2.15;;
19814;SDS011;10067;53.092;8.800;2023-02-28T15:04:18;4.78;;;2.33;;